Time;durP1;ratioP1;P1;durP2;ratioP2;P2;SDS_P1;SDS_P2;PMS_P1;PMS_P2;Temp;Humidity;BMP_temperature;BMP_pressure;BME280_temperature;BME280_humidity;BME280_pressure;Samples;Min_cycle;Max_cycle;Signal;HPM_P1;HPM_P2
2021/06/24 00:01:23;;;;;;;2.20;1.15;;;16.50;89.80;;;;;;5089642;28;20036;-52
2021/06/24 00:03:50;;;;;;;3.40;0.65;;;16.60;89.80;;;;;;5085489;28;20495;-55
2021/06/24 00:06:18;;;;;;;1.27;0.63;;;16.60;90.00;;;;;;5089684;28;20021;-52
2021/06/24 00:08:45;;;;;;;1.30;0.80;;;16.60;89.80;;;;;;5089353;28;20470;-53
2021/06/24 00:11:13;;;;;;;1.88;0.70;;;16.60;89.70;;;;;;5090121;28;20024;-49
2021/06/24 00:13:40;;;;;;;3.15;1.10;;;16.60;89.50;;;;;;5086469;28;20135;-50
2021/06/24 00:16:08;;;;;;;1.80;1.00;;;16.60;90.10;;;;;;5089473;28;20024;-52
2021/06/24 00:18:36;;;;;;;4.57;1.30;;;16.60;89.60;;;;;;5088758;28;20521;-52
2021/06/24 00:21:04;;;;;;;1.45;0.77;;;16.60;89.80;;;;;;5089901;28;20478;-55
2021/06/24 00:23:32;;;;;;;1.92;0.60;;;16.60;89.60;;;;;;5086289;28;20039;-50
2021/06/24 00:26:00;;;;;;;4.47;1.05;;;16.70;89.30;;;;;;5088624;28;20024;-53
2021/06/24 00:28:28;;;;;;;2.78;1.00;;;16.70;89.60;;;;;;5089824;28;20020;-54
2021/06/24 00:30:57;;;;;;;2.95;0.93;;;16.70;89.50;;;;;;5089104;28;20470;-49
2021/06/24 00:33:25;;;;;;;2.67;0.82;;;16.70;89.60;;;;;;5086046;28;20031;-54
2021/06/24 00:35:53;;;;;;;0.90;0.43;;;16.70;89.60;;;;;;5089493;28;20020;-53
2021/06/24 00:38:20;;;;;;;3.08;0.82;;;16.70;89.50;;;;;;5092325;28;20388;-51
2021/06/24 00:40:48;;;;;;;1.38;0.82;;;16.70;89.50;;;;;;5091439;28;20056;-49
2021/06/24 00:43:22;;;;;;;2.50;0.77;;;16.70;89.40;;;;;;5088435;28;20109;-58
2021/06/24 00:45:50;;;;;;;3.80;1.20;;;16.70;89.50;;;;;;5088355;28;20050;-54
2021/06/24 00:48:18;;;;;;;1.85;0.95;;;16.70;89.50;;;;;;5091697;28;20077;-52
2021/06/24 00:50:48;;;;;;;1.92;0.77;;;16.70;89.60;;;;;;5091862;28;20020;-48
2021/06/24 00:53:16;;;;;;;3.08;0.88;;;16.70;89.60;;;;;;5092121;28;20077;-53
2021/06/24 00:55:47;;;;;;;2.58;0.77;;;16.70;89.70;;;;;;5092142;28;20035;-58
2021/06/24 00:58:16;;;;;;;2.78;0.82;;;16.70;89.60;;;;;;5091438;28;20020;-54
2021/06/24 01:00:46;;;;;;;2.50;0.90;;;16.70;89.60;;;;;;5091168;28;20027;-55
2021/06/24 01:03:14;;;;;;;5.45;0.98;;;16.80;89.50;;;;;;5091540;28;20028;-54
2021/06/24 01:05:44;;;;;;;1.77;0.77;;;16.80;89.40;;;;;;5091878;28;20077;-54
2021/06/24 01:08:15;;;;;;;1.30;0.73;;;16.80;89.30;;;;;;5091639;28;20053;-52
2021/06/24 01:10:44;;;;;;;1.55;0.60;;;16.80;89.60;;;;;;5091730;28;20115;-53
2021/06/24 01:13:13;;;;;;;4.40;1.00;;;16.90;89.30;;;;;;5089718;28;20123;-51
2021/06/24 01:15:41;;;;;;;1.35;0.68;;;16.90;89.30;;;;;;5091110;28;20020;-49
2021/06/24 01:18:09;;;;;;;4.32;0.70;;;16.90;89.20;;;;;;5091299;28;20137;-52
2021/06/24 01:20:37;;;;;;;2.35;0.93;;;16.90;89.00;;;;;;5091502;28;20043;-50
2021/06/24 01:23:07;;;;;;;3.75;0.88;;;16.90;89.10;;;;;;5091542;28;20396;-54
2021/06/24 01:25:35;;;;;;;2.55;0.70;;;16.90;89.10;;;;;;5091418;28;20524;-50
2021/06/24 01:28:08;;;;;;;1.55;0.55;;;16.90;89.10;;;;;;5090684;28;20823;-51
2021/06/24 01:30:37;;;;;;;3.58;0.80;;;16.90;88.90;;;;;;5095242;28;20378;-54
2021/06/24 01:33:06;;;;;;;2.97;0.85;;;16.90;89.10;;;;;;5093654;28;20085;-51
2021/06/24 01:35:35;;;;;;;2.45;1.10;;;16.90;88.90;;;;;;5095345;28;20024;-55
2021/06/24 01:38:05;;;;;;;2.13;0.60;;;16.90;88.90;;;;;;5095346;28;20020;-53
2021/06/24 01:40:33;;;;;;;3.15;0.70;;;17.00;89.10;;;;;;5095068;28;20081;-53
2021/06/24 01:43:01;;;;;;;1.13;0.70;;;17.00;89.10;;;;;;5094674;28;20036;-49
2021/06/24 01:45:29;;;;;;;2.17;0.82;;;17.00;89.20;;;;;;5095379;28;20101;-56
2021/06/24 01:47:56;;;;;;;7.45;1.10;;;17.00;89.70;;;;;;5095327;28;20021;-55
2021/06/24 01:50:24;;;;;;;3.63;0.68;;;17.10;89.30;;;;;;5095053;28;20061;-57
2021/06/24 01:52:51;;;;;;;2.40;0.60;;;17.30;90.40;;;;;;5094265;28;20032;-49
2021/06/24 01:55:31;;;;;;;1.40;0.57;;;17.50;90.60;;;;;;5094883;28;20034;-48
2021/06/24 01:58:00;;;;;;;1.65;0.88;;;17.90;89.90;;;;;;5094536;28;20076;-56
2021/06/24 02:00:28;;;;;;;3.15;1.40;;;18.10;88.20;;;;;;5094822;28;20024;-57
2021/06/24 02:02:56;;;;;;;5.45;2.70;;;18.40;87.60;;;;;;5094401;28;20065;-57
2021/06/24 02:05:24;;;;;;;8.55;3.00;;;18.80;85.80;;;;;;5094355;28;20024;-52
2021/06/24 02:07:51;;;;;;;5.60;2.90;;;19.00;83.60;;;;;;5110173;28;20169;-55
2021/06/24 02:10:19;;;;;;;5.78;4.13;;;19.10;81.90;;;;;;5114774;28;20098;-52
2021/06/24 02:12:47;;;;;;;5.25;3.03;;;19.20;80.70;;;;;;5114296;28;20114;-54
2021/06/24 02:15:16;;;;;;;4.97;3.15;;;19.10;79.70;;;;;;5114936;28;20055;-52
2021/06/24 02:17:44;;;;;;;7.03;4.10;;;19.10;79.90;;;;;;5115120;28;20022;-51
2021/06/24 02:20:15;;;;;;;9.32;8.35;;;18.90;80.40;;;;;;5114586;28;20075;-50
2021/06/24 02:22:44;;;;;;;12.38;7.38;;;18.80;80.40;;;;;;5114850;28;20038;-51
2021/06/24 02:25:15;;;;;;;9.07;5.38;;;18.70;81.00;;;;;;5114521;28;20024;-52
2021/06/24 02:27:43;;;;;;;11.32;4.75;;;18.60;81.70;;;;;;5105252;28;20044;-56
2021/06/24 02:30:13;;;;;;;8.77;4.50;;;18.60;82.30;;;;;;5094721;28;20032;-52
2021/06/24 02:32:41;;;;;;;9.98;5.80;;;18.50;82.50;;;;;;5094798;28;20027;-49
2021/06/24 02:35:14;;;;;;;10.80;5.60;;;18.40;83.20;;;;;;5094476;28;20037;-59
2021/06/24 02:37:45;;;;;;;7.28;6.30;;;18.40;83.40;;;;;;5093422;28;20028;-53
2021/06/24 02:40:16;;;;;;;5.60;4.57;;;18.40;83.70;;;;;;5093690;28;20024;-57
2021/06/24 02:42:47;;;;;;;7.00;6.20;;;18.40;83.30;;;;;;5093500;28;20097;-58
2021/06/24 02:45:15;;;;;;;8.68;6.88;;;18.50;84.30;;;;;;5094421;28;20425;-55
2021/06/24 02:47:43;;;;;;;7.93;7.13;;;18.50;83.70;;;;;;5094502;28;20031;-60
2021/06/24 02:50:12;;;;;;;8.77;6.20;;;18.50;84.30;;;;;;5092538;28;20341;-57
2021/06/24 02:52:40;;;;;;;10.25;7.10;;;18.40;83.80;;;;;;5094696;28;20369;-56
2021/06/24 02:55:08;;;;;;;10.40;7.10;;;18.50;83.60;;;;;;5093882;28;20039;-58
2021/06/24 02:57:35;;;;;;;8.55;7.15;;;18.50;83.40;;;;;;5094082;28;20024;-52
2021/06/24 03:00:06;;;;;;;7.88;7.10;;;18.50;83.90;;;;;;5094175;28;20052;-56
2021/06/24 03:02:33;;;;;;;10.40;7.25;;;18.50;85.30;;;;;;5093869;28;20521;-56
2021/06/24 03:05:00;;;;;;;12.02;6.82;;;18.70;85.30;;;;;;5093757;28;20028;-57
2021/06/24 03:07:28;;;;;;;6.75;6.05;;;18.90;82.50;;;;;;5094158;28;20028;-56
2021/06/24 03:09:55;;;;;;;7.40;6.70;;;18.90;82.40;;;;;;5093946;28;20024;-54
2021/06/24 03:12:23;;;;;;;8.63;7.25;;;18.90;82.30;;;;;;5083353;28;20505;-55
2021/06/24 03:14:50;;;;;;;10.60;7.57;;;18.80;82.40;;;;;;5090205;28;20517;-52
2021/06/24 03:17:18;;;;;;;7.38;5.85;;;18.90;82.70;;;;;;5091289;28;20031;-49
2021/06/24 03:19:45;;;;;;;10.52;6.75;;;19.10;84.30;;;;;;5090561;28;20364;-52
2021/06/24 03:22:12;;;;;;;6.32;4.97;;;19.30;83.20;;;;;;5089485;28;20031;-51
2021/06/24 03:24:40;;;;;;;12.68;5.40;;;19.60;82.50;;;;;;5090452;28;20032;-47
2021/06/24 03:27:07;;;;;;;5.78;4.90;;;19.90;80.00;;;;;;5088007;28;20059;-56
2021/06/24 03:29:35;;;;;;;8.32;4.63;;;20.00;77.40;;;;;;5089525;28;20478;-55
2021/06/24 03:32:03;;;;;;;6.10;4.28;;;20.20;77.40;;;;;;5090219;28;20034;-57
2021/06/24 03:34:30;;;;;;;7.97;4.32;;;20.20;75.90;;;;;;5090040;28;20057;-48
2021/06/24 03:36:57;;;;;;;6.85;4.13;;;20.30;75.70;;;;;;5087303;28;20048;-52
2021/06/24 03:39:25;;;;;;;6.53;3.80;;;20.20;76.10;;;;;;5088830;28;20079;-53
2021/06/24 03:41:52;;;;;;;7.78;3.22;;;20.10;76.50;;;;;;5090006;28;20027;-56
2021/06/24 03:44:20;;;;;;;6.47;3.65;;;20.00;77.70;;;;;;5090003;28;20039;-47
2021/06/24 03:46:47;;;;;;;9.82;3.42;;;20.10;79.00;;;;;;5088536;28;20496;-46
2021/06/24 03:49:15;;;;;;;8.35;3.70;;;20.30;76.50;;;;;;5087802;28;20105;-52
2021/06/24 03:51:42;;;;;;;3.95;2.78;;;20.50;77.60;;;;;;5088539;28;20027;-51
2021/06/24 03:54:09;;;;;;;4.43;2.58;;;20.70;74.80;;;;;;5089859;28;20036;-51
2021/06/24 03:56:37;;;;;;;5.75;2.85;;;20.70;74.10;;;;;;5089107;28;20109;-47
2021/06/24 03:59:05;;;;;;;3.55;2.40;;;20.80;73.50;;;;;;5085688;28;20028;-49
2021/06/24 04:01:42;;;;;;;7.07;2.45;;;20.50;74.40;;;;;;5086657;28;20023;-50
2021/06/24 04:04:12;;;;;;;3.55;2.55;;;20.40;75.20;;;;;;5087262;28;20035;-46
2021/06/24 04:06:39;;;;;;;7.28;2.13;;;20.40;76.20;;;;;;5090667;28;20059;-51
2021/06/24 04:09:10;;;;;;;3.63;2.35;;;20.30;76.20;;;;;;5086519;28;20424;-52
2021/06/24 04:11:37;;;;;;;5.30;2.33;;;20.30;76.50;;;;;;5089853;28;20452;-49
2021/06/24 04:14:04;;;;;;;3.95;2.47;;;20.50;76.90;;;;;;5089519;28;20054;-47
2021/06/24 04:16:32;;;;;;;4.75;2.53;;;20.40;76.30;;;;;;5088484;28;20059;-51
2021/06/24 04:18:59;;;;;;;3.08;2.10;;;20.40;75.40;;;;;;5084661;28;20506;-50
2021/06/24 04:21:27;;;;;;;2.50;2.20;;;20.30;76.30;;;;;;5089505;28;20116;-51
2021/06/24 04:23:54;;;;;;;3.20;2.03;;;20.30;76.20;;;;;;5089094;28;20093;-56
2021/06/24 04:26:22;;;;;;;7.10;2.47;;;20.10;77.00;;;;;;5092677;28;20055;-50
2021/06/24 04:28:50;;;;;;;4.85;2.22;;;20.00;77.00;;;;;;5092221;28;20534;-51
2021/06/24 04:31:17;;;;;;;3.17;2.15;;;19.90;77.90;;;;;;5091568;28;20103;-50
2021/06/24 04:33:45;;;;;;;4.75;2.03;;;19.80;79.70;;;;;;5090589;28;20035;-54
2021/06/24 04:36:12;;;;;;;3.60;1.98;;;19.70;79.20;;;;;;5092006;28;20035;-54
2021/06/24 04:38:39;;;;;;;5.15;1.83;;;19.70;79.50;;;;;;5092599;28;20031;-49
2021/06/24 04:41:07;;;;;;;1.90;1.63;;;19.60;80.00;;;;;;5092454;28;20095;-55
2021/06/24 04:43:34;;;;;;;2.20;1.77;;;19.60;79.90;;;;;;5092181;28;20035;-54
2021/06/24 04:46:02;;;;;;;2.72;1.50;;;19.50;80.80;;;;;;5092263;28;20482;-53
2021/06/24 04:48:29;;;;;;;2.40;1.65;;;19.60;79.20;;;;;;5091083;28;20028;-53
2021/06/24 04:50:57;;;;;;;3.78;1.70;;;19.50;79.80;;;;;;5092008;28;20021;-54
2021/06/24 04:53:24;;;;;;;2.85;1.73;;;19.50;79.70;;;;;;5091816;28;20554;-53
2021/06/24 04:55:52;;;;;;;5.55;1.92;;;19.40;80.00;;;;;;5092306;28;20371;-50
2021/06/24 04:58:19;;;;;;;5.57;2.13;;;19.30;80.20;;;;;;5085791;28;20476;-60
2021/06/24 05:00:47;;;;;;;4.22;1.70;;;19.10;81.50;;;;;;5090155;28;20020;-52
2021/06/24 05:03:14;;;;;;;2.83;1.50;;;19.10;81.30;;;;;;5090987;28;20130;-54
2021/06/24 05:05:42;;;;;;;3.05;1.63;;;19.00;82.20;;;;;;5095961;28;20374;-54
2021/06/24 05:08:16;;;;;;;4.72;1.70;;;19.00;82.10;;;;;;5105499;28;20028;-49
2021/06/24 05:10:45;;;;;;;17.45;2.00;;;18.90;82.10;;;;;;5116797;28;20027;-54
2021/06/24 05:13:12;;;;;;;3.72;2.80;;;18.90;81.90;;;;;;5116100;28;20036;-49
2021/06/24 05:15:43;;;;;;;4.22;2.67;;;18.90;82.80;;;;;;5116397;28;20428;-51
2021/06/24 05:18:13;;;;;;;5.32;3.45;;;18.90;83.00;;;;;;5090666;28;20027;-49
2021/06/24 05:20:42;;;;;;;4.75;3.08;;;18.80;83.40;;;;;;5092921;28;20099;-55
2021/06/24 05:23:09;;;;;;;4.50;3.58;;;18.70;83.60;;;;;;5091159;28;20509;-50
2021/06/24 05:25:37;;;;;;;15.18;5.40;;;18.70;83.60;;;;;;5090387;28;20034;-52
2021/06/24 05:28:05;;;;;;;8.48;4.72;;;18.70;84.00;;;;;;5092575;28;20036;-48
2021/06/24 05:30:33;;;;;;;7.07;6.47;;;18.60;84.40;;;;;;5090716;28;20063;-48
2021/06/24 05:33:00;;;;;;;7.18;6.47;;;18.60;84.50;;;;;;5091889;28;20439;-52
2021/06/24 05:35:28;;;;;;;8.23;6.65;;;18.50;84.60;;;;;;5092831;28;20181;-54
2021/06/24 05:37:56;;;;;;;8.20;6.40;;;18.60;84.70;;;;;;5091678;28;20115;-52
2021/06/24 05:40:24;;;;;;;10.18;7.25;;;18.50;84.40;;;;;;5088457;28;20028;-49
2021/06/24 05:42:51;;;;;;;8.48;7.78;;;18.50;84.20;;;;;;5092441;28;20065;-52
2021/06/24 05:45:25;;;;;;;9.55;8.65;;;18.50;84.80;;;;;;5092861;28;20031;-49
2021/06/24 05:47:53;;;;;;;8.73;7.80;;;18.50;84.80;;;;;;5092087;28;20032;-52
2021/06/24 05:50:22;;;;;;;9.85;8.90;;;18.50;84.70;;;;;;5088379;28;20524;-52
2021/06/24 05:52:49;;;;;;;9.10;8.20;;;18.50;84.60;;;;;;5092041;28;20360;-51
2021/06/24 05:55:17;;;;;;;8.02;7.18;;;18.60;84.70;;;;;;5092100;28;20059;-49
2021/06/24 05:57:45;;;;;;;12.07;8.95;;;18.60;84.00;;;;;;5091156;28;20051;-49
2021/06/24 06:00:13;;;;;;;8.45;7.65;;;18.60;84.80;;;;;;5085482;28;20031;-52
2021/06/24 06:02:41;;;;;;;10.35;9.45;;;18.50;84.50;;;;;;5092226;28;20024;-52
2021/06/24 06:05:09;;;;;;;8.48;7.68;;;18.50;85.20;;;;;;5090720;28;20020;-47
2021/06/24 06:07:37;;;;;;;9.73;8.77;;;18.50;85.10;;;;;;5091403;28;20115;-52
2021/06/24 06:10:04;;;;;;;10.70;9.32;;;18.50;85.30;;;;;;5089366;28;20064;-51
2021/06/24 06:12:32;;;;;;;8.75;7.20;;;18.50;85.20;;;;;;5091458;28;20398;-50
2021/06/24 06:14:59;;;;;;;6.82;6.10;;;18.50;85.00;;;;;;5090195;28;20085;-53
2021/06/24 06:17:26;;;;;;;8.13;6.15;;;18.50;85.40;;;;;;5091277;28;20505;-52
2021/06/24 06:19:54;;;;;;;14.32;10.80;;;18.60;85.20;;;;;;5086471;28;20030;-51
2021/06/24 06:22:21;;;;;;;14.98;8.10;;;18.50;85.20;;;;;;5073742;28;20024;-50
2021/06/24 06:24:48;;;;;;;13.38;11.25;;;18.50;85.00;;;;;;5094830;28;20086;-50
2021/06/24 06:27:16;;;;;;;12.40;11.05;;;18.50;85.40;;;;;;5094310;28;20055;-54
2021/06/24 06:29:43;;;;;;;14.52;10.48;;;18.50;85.80;;;;;;5095120;28;20115;-50
2021/06/24 06:32:10;;;;;;;14.05;10.98;;;18.40;85.60;;;;;;5094883;28;20509;-49
2021/06/24 06:34:38;;;;;;;10.85;9.50;;;18.50;85.90;;;;;;5093138;28;20435;-56
2021/06/24 06:37:05;;;;;;;15.35;9.55;;;18.50;85.60;;;;;;5094185;28;20024;-51
2021/06/24 06:39:32;;;;;;;9.13;7.88;;;18.40;85.50;;;;;;5094754;28;20036;-51
2021/06/24 06:42:00;;;;;;;9.15;7.45;;;18.50;85.50;;;;;;5094720;28;20386;-54
2021/06/24 06:44:27;;;;;;;9.00;7.80;;;18.50;85.50;;;;;;5094443;28;20073;-52
2021/06/24 06:46:55;;;;;;;14.70;10.68;;;18.40;85.40;;;;;;5094229;28;20024;-54
2021/06/24 06:49:22;;;;;;;12.85;9.27;;;18.40;85.70;;;;;;5093656;28;20024;-53
2021/06/24 06:51:49;;;;;;;10.98;9.43;;;18.40;85.90;;;;;;5094641;28;20020;-49
2021/06/24 06:54:17;;;;;;;12.45;9.75;;;18.40;86.10;;;;;;5094462;28;20086;-53
2021/06/24 06:56:47;;;;;;;12.73;11.15;;;18.40;86.10;;;;;;5093963;28;20024;-52
2021/06/24 06:59:15;;;;;;;23.77;16.88;;;18.40;86.50;;;;;;5093562;28;20081;-55
2021/06/24 07:01:42;;;;;;;10.25;9.18;;;18.40;86.10;;;;;;5094017;28;20031;-54
2021/06/24 07:04:10;;;;;;;10.32;8.77;;;18.40;86.40;;;;;;5093680;28;20022;-51
2021/06/24 07:06:38;;;;;;;7.22;5.57;;;18.40;86.40;;;;;;5093971;28;20024;-54
2021/06/24 07:09:16;;;;;;;12.38;7.65;;;18.40;85.30;;;;;;5091634;28;20051;-46
2021/06/24 07:11:43;;;;;;;8.02;4.68;;;18.40;86.20;;;;;;5093368;28;20021;-56
2021/06/24 07:14:10;;;;;;;14.63;10.48;;;18.40;82.80;;;;;;5093409;28;20042;-50
2021/06/24 07:16:38;;;;;;;15.95;11.20;;;18.40;85.80;;;;;;5093496;28;20055;-49
2021/06/24 07:19:05;;;;;;;12.48;11.18;;;18.40;82.90;;;;;;5093225;28;20383;-54
2021/06/24 07:21:32;;;;;;;16.10;10.93;;;18.40;84.40;;;;;;5091999;28;20039;-53
2021/06/24 07:24:00;;;;;;;22.17;19.58;;;18.50;84.90;;;;;;5091214;28;20072;-51
2021/06/24 07:26:28;;;;;;;20.73;18.45;;;18.50;80.80;;;;;;5090628;28;20043;-53
2021/06/24 07:28:56;;;;;;;15.80;13.10;;;18.60;85.00;;;;;;5090415;28;20552;-54
2021/06/24 07:31:23;;;;;;;13.50;6.72;;;18.50;83.10;;;;;;5091002;28;20059;-50
2021/06/24 07:33:50;;;;;;;19.10;12.63;;;18.50;83.30;;;;;;5090451;28;20376;-55
2021/06/24 07:36:18;;;;;;;12.80;11.63;;;18.50;86.50;;;;;;5088281;28;20024;-55
2021/06/24 07:38:45;;;;;;;12.35;10.23;;;18.30;84.90;;;;;;5090725;28;20099;-54
2021/06/24 07:41:13;;;;;;;23.45;21.17;;;18.30;86.70;;;;;;5092657;28;20361;-51
2021/06/24 07:43:40;;;;;;;15.70;14.05;;;18.40;84.70;;;;;;5092793;28;20055;-56
2021/06/24 07:46:08;;;;;;;18.60;16.73;;;18.30;87.30;;;;;;5093193;28;20020;-51
2021/06/24 07:48:35;;;;;;;26.65;24.08;;;18.40;85.40;;;;;;5092736;28;20020;-54
2021/06/24 07:51:02;;;;;;;15.55;14.10;;;18.40;86.50;;;;;;5092604;28;20028;-50
2021/06/24 07:53:30;;;;;;;15.10;12.73;;;18.40;86.50;;;;;;5092880;28;20437;-54
2021/06/24 07:55:57;;;;;;;10.18;9.27;;;18.40;85.50;;;;;;5092832;28;20028;-50
2021/06/24 07:58:24;;;;;;;12.38;11.18;;;18.40;84.80;;;;;;5092554;28;20051;-53
2021/06/24 08:00:52;;;;;;;10.23;8.93;;;18.40;87.40;;;;;;5092577;28;20035;-57
2021/06/24 08:03:19;;;;;;;12.63;10.98;;;18.40;85.40;;;;;;5092595;28;20036;-53
2021/06/24 08:05:46;;;;;;;12.05;10.95;;;18.40;85.80;;;;;;5090779;28;20032;-51
2021/06/24 08:08:14;;;;;;;10.52;9.45;;;18.30;85.80;;;;;;5092354;28;20429;-54
2021/06/24 08:10:41;;;;;;;11.15;10.15;;;18.30;86.10;;;;;;5092409;28;20043;-53
2021/06/24 08:13:08;;;;;;;15.15;7.80;;;18.40;82.60;;;;;;5090335;28;20913;-58
2021/06/24 08:15:36;;;;;;;10.20;6.97;;;18.40;85.10;;;;;;5092232;28;20028;-54
2021/06/24 08:18:03;;;;;;;9.98;8.98;;;18.30;86.20;;;;;;5070286;28;20093;-52
2021/06/24 08:20:30;;;;;;;14.73;5.50;;;18.30;84.40;;;;;;5075121;28;20068;-52
2021/06/24 08:22:58;;;;;;;8.82;7.95;;;18.30;80.50;;;;;;5080149;28;20017;-58
2021/06/24 08:25:25;;;;;;;11.30;7.47;;;18.40;86.00;;;;;;5071846;28;20391;-54
2021/06/24 08:27:53;;;;;;;8.10;7.00;;;18.40;87.50;;;;;;5074653;28;20181;-53
2021/06/24 08:30:21;;;;;;;7.50;6.65;;;18.40;88.40;;;;;;5092377;28;20381;-50
2021/06/24 08:32:48;;;;;;;8.25;6.32;;;18.40;88.10;;;;;;5080808;28;20355;-58
2021/06/24 08:35:17;;;;;;;11.25;6.55;;;18.40;89.20;;;;;;5087697;28;20032;-54
2021/06/24 08:37:44;;;;;;;8.98;4.40;;;18.50;89.20;;;;;;5085133;28;20017;-57
2021/06/24 08:40:14;;;;;;;11.57;5.93;;;18.50;89.00;;;;;;5085703;28;20032;-56
2021/06/24 08:42:42;;;;;;;10.02;4.55;;;18.50;88.50;;;;;;5086931;28;20486;-56
2021/06/24 08:45:11;;;;;;;7.57;4.95;;;18.50;87.40;;;;;;5085716;28;20088;-56
2021/06/24 08:47:44;;;;;;;9.35;4.68;;;18.50;87.30;;;;;;5086725;28;20435;-53
2021/06/24 08:50:12;;;;;;;13.80;4.20;;;18.50;90.00;;;;;;5084636;28;20164;-48
2021/06/24 08:52:41;;;;;;;12.18;3.58;;;18.50;90.00;;;;;;5087875;28;20128;-51
2021/06/24 08:55:09;;;;;;;10.88;4.47;;;18.40;86.80;;;;;;5087810;28;20043;-56
2021/06/24 08:57:36;;;;;;;19.27;4.72;;;18.40;84.40;;;;;;5086594;28;20021;-54
2021/06/24 09:00:08;;;;;;;6.75;3.65;;;18.50;90.10;;;;;;5085402;28;20055;-51
2021/06/24 09:02:43;;;;;;;10.00;3.33;;;18.50;89.30;;;;;;5088533;28;20021;-52
2021/06/24 09:05:13;;;;;;;23.63;5.38;;;18.50;90.90;;;;;;5087362;28;20028;-49
2021/06/24 09:07:53;;;;;;;15.48;5.50;;;18.50;90.30;;;;;;5087849;28;20348;-51
2021/06/24 09:10:22;;;;;;;10.02;3.60;;;18.50;89.70;;;;;;5082530;28;20032;-51
2021/06/24 09:13:03;;;;;;;19.52;4.35;;;18.50;91.10;;;;;;5085704;28;20032;-57
2021/06/24 09:15:40;;;;;;;14.67;4.97;;;18.50;90.60;;;;;;5085328;28;20157;-51
2021/06/24 09:18:23;;;;;;;7.70;3.92;;;18.50;91.40;;;;;;5086015;28;20047;-48
2021/06/24 09:20:50;;;;;;;9.57;3.72;;;18.50;91.10;;;;;;5082174;28;20024;-52
2021/06/24 09:23:21;;;;;;;19.02;4.35;;;18.50;89.70;;;;;;5087668;28;20024;-51
2021/06/24 09:26:12;;;;;;;12.32;3.85;;;18.40;91.10;;;;;;5086752;28;20573;-51
2021/06/24 09:28:43;;;;;;;15.38;4.05;;;18.50;91.00;;;;;;5087191;28;20028;-52
2021/06/24 09:31:28;;;;;;;9.43;3.53;;;18.40;90.50;;;;;;5084700;28;20036;-56
2021/06/24 09:34:07;;;;;;;28.17;4.72;;;18.40;91.20;;;;;;5091460;28;20350;-58
2021/06/24 09:36:37;;;;;;;25.58;4.47;;;18.50;92.30;;;;;;5090841;28;20482;-54
2021/06/24 09:39:07;;;;;;;11.93;3.90;;;18.40;92.50;;;;;;5091624;28;20058;-54
2021/06/24 09:41:36;;;;;;;12.10;8.55;;;18.30;88.70;;;;;;5091429;28;20489;-55
2021/06/24 09:44:20;;;;;;;40.47;36.63;;;18.30;88.70;;;;;;5091450;28;20073;-55
2021/06/24 09:46:47;;;;;;;27.88;24.80;;;18.20;90.50;;;;;;5091536;28;20028;-54
2021/06/24 09:49:33;;;;;;;23.30;16.27;;;18.20;90.20;;;;;;5086167;28;20013;-53
2021/06/24 09:52:04;;;;;;;16.48;9.75;;;18.30;90.60;;;;;;5079142;28;20055;-53
2021/06/24 09:54:42;;;;;;;8.63;5.57;;;18.20;90.80;;;;;;5094251;28;20486;-53
2021/06/24 09:57:22;;;;;;;22.08;19.60;;;18.20;90.20;;;;;;5095106;28;20032;-57
2021/06/24 09:59:49;;;;;;;17.15;11.43;;;18.20;90.30;;;;;;5088985;28;20067;-57
2021/06/24 10:02:18;;;;;;;12.73;6.80;;;18.20;91.30;;;;;;5095759;28;20050;-57
2021/06/24 10:04:47;;;;;;;15.45;10.48;;;18.10;90.80;;;;;;5085629;28;20032;-55
2021/06/24 10:07:17;;;;;;;10.70;5.13;;;18.10;90.70;;;;;;5095642;28;20024;-51
2021/06/24 10:09:46;;;;;;;11.93;8.70;;;18.10;88.60;;;;;;5095657;28;20478;-53
2021/06/24 10:12:18;;;;;;;17.00;14.07;;;18.10;86.90;;;;;;5095429;28;20085;-53
2021/06/24 10:14:47;;;;;;;13.50;6.80;;;18.10;90.80;;;;;;5095452;28;20032;-53
2021/06/24 10:17:15;;;;;;;14.35;9.52;;;18.10;90.50;;;;;;5095164;28;20026;-55
2021/06/24 10:19:44;;;;;;;18.30;14.23;;;18.10;90.90;;;;;;5095368;28;20024;-54
2021/06/24 10:22:31;;;;;;;13.15;11.85;;;18.20;91.00;;;;;;5095083;28;20032;-52
2021/06/24 10:25:10;;;;;;;13.07;7.45;;;18.10;91.00;;;;;;5094386;28;20107;-54
2021/06/24 10:27:40;;;;;;;16.40;10.32;;;18.10;86.50;;;;;;5094486;28;20174;-57
2021/06/24 10:30:14;;;;;;;10.05;7.95;;;18.10;91.70;;;;;;5094695;28;20028;-56
2021/06/24 10:32:57;;;;;;;12.82;4.80;;;18.10;90.60;;;;;;5094740;28;20039;-55
2021/06/24 10:35:30;;;;;;;13.50;8.35;;;18.10;90.10;;;;;;5093613;28;20166;-52
2021/06/24 10:37:58;;;;;;;10.88;7.38;;;18.10;91.50;;;;;;5092732;28;20024;-55
2021/06/24 10:40:33;;;;;;;9.88;7.07;;;18.10;91.20;;;;;;5093100;28;20070;-61
2021/06/24 10:43:03;;;;;;;13.70;6.05;;;18.10;91.10;;;;;;5094412;28;20513;-51
2021/06/24 10:45:31;;;;;;;36.50;19.73;;;18.10;91.10;;;;;;5085099;28;20504;-55
2021/06/24 10:48:19;;;;;;;39.67;17.95;;;18.10;91.10;;;;;;5090744;28;20027;-52
2021/06/24 10:50:55;;;;;;;74.57;36.72;;;18.10;91.50;;;;;;5090152;28;20483;-50
2021/06/24 10:53:23;;;;;;;126.68;60.65;;;18.10;91.30;;;;;;5088095;28;20086;-50
2021/06/24 10:55:50;;;;;;;152.13;73.75;;;18.00;91.20;;;;;;5091556;28;20036;-49
2021/06/24 10:58:23;;;;;;;167.93;89.45;;;18.00;91.10;;;;;;5091015;28;20056;-53
2021/06/24 11:00:55;;;;;;;200.73;96.38;;;18.00;91.10;;;;;;5090720;28;20051;-47
2021/06/24 11:03:43;;;;;;;175.68;90.72;;;18.00;91.00;;;;;;5089534;28;20077;-50
2021/06/24 11:06:15;;;;;;;174.43;93.30;;;18.00;91.00;;;;;;5090487;28;20032;-50
2021/06/24 11:08:45;;;;;;;188.73;94.15;;;18.00;91.00;;;;;;5091436;28;20024;-52
2021/06/24 11:11:14;;;;;;;182.73;94.13;;;18.00;91.10;;;;;;5090346;28;20491;-50
2021/06/24 11:13:45;;;;;;;192.45;96.60;;;18.00;91.00;;;;;;5088468;28;20515;-54
2021/06/24 11:16:13;;;;;;;185.93;94.60;;;17.90;91.10;;;;;;5091123;28;20044;-53
2021/06/24 11:18:46;;;;;;;194.05;94.20;;;17.90;91.00;;;;;;5091287;28;20035;-52
2021/06/24 11:21:21;;;;;;;183.73;94.28;;;17.90;91.10;;;;;;5091470;28;20055;-54
2021/06/24 11:23:52;;;;;;;180.35;93.82;;;17.90;91.10;;;;;;5087882;28;20039;-50
2021/06/24 11:26:29;;;;;;;177.67;95.07;;;17.90;91.00;;;;;;5090253;28;20100;-50
2021/06/24 11:29:09;;;;;;;176.88;90.32;;;17.90;91.00;;;;;;5087864;28;20034;-49
2021/06/24 11:34:53;;;;;;;163.85;84.70;;;17.90;91.00;;;;;;5077085;28;20586;-49
2021/06/24 11:37:32;;;;;;;165.75;85.32;;;17.80;90.90;;;;;;5091074;28;20024;-46
2021/06/24 11:40:25;;;;;;;150.52;81.72;;;17.90;91.00;;;;;;5091130;28;20596;-53
2021/06/24 11:42:53;;;;;;;157.27;83.15;;;17.80;90.90;;;;;;5086740;28;20039;-52
2021/06/24 11:45:24;;;;;;;153.98;82.22;;;17.80;90.90;;;;;;5087327;28;20114;-53
2021/06/24 11:47:57;;;;;;;144.65;76.90;;;17.80;90.90;;;;;;5090214;28;20043;-50
2021/06/24 12:04:32;;;;;;;127.43;67.32;;;17.70;90.70;;;;;;5086417;28;20048;-53
2021/06/24 12:07:10;;;;;;;126.10;68.53;;;17.80;90.70;;;;;;5088199;28;20432;-47
2021/06/24 12:09:49;;;;;;;127.07;68.82;;;17.70;90.70;;;;;;5087728;28;20484;-47
2021/06/24 12:12:19;;;;;;;123.97;66.63;;;17.70;90.70;;;;;;5089928;28;20020;-49
2021/06/24 12:14:47;;;;;;;131.93;68.15;;;17.70;90.70;;;;;;5085474;28;20112;-53
2021/06/24 12:17:26;;;;;;;116.35;64.47;;;17.70;90.60;;;;;;5089690;28;20043;-55
2021/06/24 12:19:56;;;;;;;124.25;65.47;;;17.60;90.50;;;;;;5088986;28;20123;-51
2021/06/24 12:22:32;;;;;;;127.35;65.10;;;17.60;90.50;;;;;;5088988;28;20047;-51
2021/06/24 12:25:00;;;;;;;114.50;63.25;;;17.60;90.50;;;;;;5086126;28;20049;-50
2021/06/24 12:27:36;;;;;;;119.18;64.72;;;17.60;90.50;;;;;;5087648;28;20095;-48
2021/06/24 12:30:11;;;;;;;117.10;58.75;;;17.60;90.50;;;;;;5088031;28;20076;-53
2021/06/24 12:32:45;;;;;;;111.38;60.05;;;17.60;90.40;;;;;;5092611;28;20028;-52
2021/06/24 12:35:14;;;;;;;114.72;60.63;;;17.50;90.40;;;;;;5092247;28;20051;-50
2021/06/24 12:37:43;;;;;;;113.28;60.45;;;17.50;90.40;;;;;;5092903;28;20020;-52
2021/06/24 12:40:15;;;;;;;109.70;60.35;;;17.50;90.40;;;;;;5092449;28;20035;-53
2021/06/24 12:42:52;;;;;;;107.95;58.35;;;17.50;90.40;;;;;;5092788;28;20121;-56
2021/06/24 12:45:23;;;;;;;105.57;57.90;;;17.50;90.50;;;;;;5091696;28;20066;-53
2021/06/24 12:47:51;;;;;;;107.32;58.88;;;17.50;90.50;;;;;;5092863;28;20023;-53
2021/06/24 12:50:20;;;;;;;100.95;56.70;;;17.40;90.50;;;;;;5092823;28;20071;-53
2021/06/24 12:52:59;;;;;;;104.78;55.38;;;17.40;90.50;;;;;;5092787;28;20383;-54
2021/06/24 12:55:41;;;;;;;101.50;56.38;;;17.40;90.50;;;;;;5092293;28;20093;-55
2021/06/24 12:58:17;;;;;;;98.07;54.45;;;17.40;90.50;;;;;;5086302;28;20467;-54
2021/06/24 13:01:01;;;;;;;101.05;53.70;;;17.30;90.70;;;;;;5092223;28;20490;-56
2021/06/24 13:03:44;;;;;;;94.95;51.35;;;17.30;90.70;;;;;;5092033;28;20382;-52
2021/06/24 13:06:31;;;;;;;99.13;52.88;;;17.30;90.70;;;;;;5092030;28;20042;-48
2021/06/24 13:09:18;;;;;;;86.63;50.83;;;17.30;90.70;;;;;;5091687;28;20032;-50